sensor_id;sensor_type;location;lat;lon;timestamp;P1;durP1;ratioP1;P2;durP2;ratioP2
16401;SDS011;8310;44.626;11.176;2022-08-21T00:00:33;1.98;;;1.88;;
16401;SDS011;8310;44.626;11.176;2022-08-21T00:03:03;1.80;;;1.70;;
16401;SDS011;8310;44.626;11.176;2022-08-21T00:05:35;1.80;;;1.70;;
16401;SDS011;8310;44.626;11.176;2022-08-21T00:08:06;1.83;;;1.75;;
16401;SDS011;8310;44.626;11.176;2022-08-21T00:10:34;1.80;;;1.70;;
16401;SDS011;8310;44.626;11.176;2022-08-21T00:13:02;2.20;;;2.00;;
16401;SDS011;8310;44.626;11.176;2022-08-21T00:15:31;1.67;;;1.65;;
16401;SDS011;8310;44.626;11.176;2022-08-21T00:18:00;1.55;;;1.55;;
16401;SDS011;8310;44.626;11.176;2022-08-21T00:20:27;2.47;;;1.95;;
16401;SDS011;8310;44.626;11.176;2022-08-21T00:22:56;2.15;;;2.00;;
16401;SDS011;8310;44.626;11.176;2022-08-21T00:25:24;1.67;;;1.58;;
16401;SDS011;8310;44.626;11.176;2022-08-21T00:27:53;1.80;;;1.70;;
16401;SDS011;8310;44.626;11.176;2022-08-21T00:30:22;1.60;;;1.60;;
16401;SDS011;8310;44.626;11.176;2022-08-21T00:32:51;2.10;;;2.00;;
16401;SDS011;8310;44.626;11.176;2022-08-21T00:35:21;2.35;;;1.90;;
16401;SDS011;8310;44.626;11.176;2022-08-21T00:37:50;2.00;;;1.90;;
16401;SDS011;8310;44.626;11.176;2022-08-21T00:40:20;2.55;;;2.00;;
16401;SDS011;8310;44.626;11.176;2022-08-21T00:42:58;2.13;;;2.03;;
16401;SDS011;8310;44.626;11.176;2022-08-21T00:45:27;2.17;;;2.00;;
16401;SDS011;8310;44.626;11.176;2022-08-21T00:47:55;2.10;;;1.90;;
16401;SDS011;8310;44.626;11.176;2022-08-21T00:50:23;1.90;;;1.80;;
16401;SDS011;8310;44.626;11.176;2022-08-21T00:52:55;2.00;;;1.90;;
16401;SDS011;8310;44.626;11.176;2022-08-21T00:55:25;1.90;;;1.73;;
16401;SDS011;8310;44.626;11.176;2022-08-21T00:57:54;1.95;;;1.83;;
16401;SDS011;8310;44.626;11.176;2022-08-21T01:00:26;1.65;;;1.55;;
16401;SDS011;8310;44.626;11.176;2022-08-21T01:02:56;2.10;;;2.00;;
16401;SDS011;8310;44.626;11.176;2022-08-21T01:05:24;2.03;;;1.63;;
16401;SDS011;8310;44.626;11.176;2022-08-21T01:07:51;2.33;;;2.00;;
16401;SDS011;8310;44.626;11.176;2022-08-21T01:10:22;1.35;;;1.35;;
16401;SDS011;8310;44.626;11.176;2022-08-21T01:12:51;1.40;;;1.30;;
16401;SDS011;8310;44.626;11.176;2022-08-21T01:15:20;1.60;;;1.60;;
16401;SDS011;8310;44.626;11.176;2022-08-21T01:17:49;1.80;;;1.70;;
16401;SDS011;8310;44.626;11.176;2022-08-21T01:20:22;1.88;;;1.77;;
16401;SDS011;8310;44.626;11.176;2022-08-21T01:22:52;4.68;;;1.88;;
16401;SDS011;8310;44.626;11.176;2022-08-21T01:25:19;2.08;;;1.90;;
16401;SDS011;8310;44.626;11.176;2022-08-21T01:27:47;4.13;;;2.10;;
16401;SDS011;8310;44.626;11.176;2022-08-21T01:30:17;2.13;;;2.03;;
16401;SDS011;8310;44.626;11.176;2022-08-21T01:32:46;1.90;;;1.80;;
16401;SDS011;8310;44.626;11.176;2022-08-21T01:35:15;2.00;;;1.83;;
16401;SDS011;8310;44.626;11.176;2022-08-21T01:37:46;1.45;;;1.45;;
16401;SDS011;8310;44.626;11.176;2022-08-21T01:40:16;1.80;;;1.70;;
16401;SDS011;8310;44.626;11.176;2022-08-21T01:42:44;1.73;;;1.63;;
16401;SDS011;8310;44.626;11.176;2022-08-21T01:45:12;2.20;;;1.77;;
16401;SDS011;8310;44.626;11.176;2022-08-21T01:47:40;2.00;;;1.90;;
16401;SDS011;8310;44.626;11.176;2022-08-21T01:50:09;1.52;;;1.52;;
16401;SDS011;8310;44.626;11.176;2022-08-21T01:52:39;2.33;;;1.98;;
16401;SDS011;8310;44.626;11.176;2022-08-21T01:55:08;2.20;;;2.10;;
16401;SDS011;8310;44.626;11.176;2022-08-21T01:57:39;3.40;;;2.35;;
16401;SDS011;8310;44.626;11.176;2022-08-21T02:00:08;2.53;;;2.33;;
16401;SDS011;8310;44.626;11.176;2022-08-21T02:02:37;2.70;;;2.50;;
16401;SDS011;8310;44.626;11.176;2022-08-21T02:05:05;2.78;;;2.53;;
16401;SDS011;8310;44.626;11.176;2022-08-21T02:07:37;2.35;;;2.20;;
16401;SDS011;8310;44.626;11.176;2022-08-21T02:10:05;2.10;;;2.00;;
16401;SDS011;8310;44.626;11.176;2022-08-21T02:12:34;2.20;;;2.10;;
16401;SDS011;8310;44.626;11.176;2022-08-21T02:15:04;1.98;;;1.88;;
16401;SDS011;8310;44.626;11.176;2022-08-21T02:17:39;2.33;;;2.20;;
16401;SDS011;8310;44.626;11.176;2022-08-21T02:20:09;2.53;;;2.33;;
16401;SDS011;8310;44.626;11.176;2022-08-21T02:22:37;1.92;;;1.83;;
16401;SDS011;8310;44.626;11.176;2022-08-21T02:25:04;2.35;;;2.15;;
16401;SDS011;8310;44.626;11.176;2022-08-21T02:27:37;2.33;;;2.13;;
16401;SDS011;8310;44.626;11.176;2022-08-21T02:30:08;2.90;;;2.47;;
16401;SDS011;8310;44.626;11.176;2022-08-21T02:32:39;2.78;;;2.10;;
16401;SDS011;8310;44.626;11.176;2022-08-21T02:35:07;2.13;;;2.03;;
16401;SDS011;8310;44.626;11.176;2022-08-21T02:37:42;2.40;;;2.30;;
16401;SDS011;8310;44.626;11.176;2022-08-21T02:40:10;2.83;;;2.22;;
16401;SDS011;8310;44.626;11.176;2022-08-21T02:42:38;2.30;;;2.15;;
16401;SDS011;8310;44.626;11.176;2022-08-21T02:45:08;2.20;;;2.10;;
16401;SDS011;8310;44.626;11.176;2022-08-21T02:47:36;2.78;;;2.58;;
16401;SDS011;8310;44.626;11.176;2022-08-21T02:50:04;2.55;;;2.38;;
16401;SDS011;8310;44.626;11.176;2022-08-21T02:52:33;2.63;;;2.42;;
16401;SDS011;8310;44.626;11.176;2022-08-21T02:55:00;3.70;;;2.63;;
16401;SDS011;8310;44.626;11.176;2022-08-21T02:57:27;3.40;;;2.78;;
16401;SDS011;8310;44.626;11.176;2022-08-21T02:59:56;2.70;;;2.50;;
16401;SDS011;8310;44.626;11.176;2022-08-21T03:02:25;3.00;;;2.72;;
16401;SDS011;8310;44.626;11.176;2022-08-21T03:04:53;2.78;;;2.60;;
16401;SDS011;8310;44.626;11.176;2022-08-21T03:07:20;2.40;;;2.30;;
16401;SDS011;8310;44.626;11.176;2022-08-21T03:09:48;2.78;;;2.65;;
16401;SDS011;8310;44.626;11.176;2022-08-21T03:12:16;2.75;;;2.65;;
16401;SDS011;8310;44.626;11.176;2022-08-21T03:14:43;2.60;;;2.50;;
16401;SDS011;8310;44.626;11.176;2022-08-21T03:17:11;2.70;;;2.50;;
16401;SDS011;8310;44.626;11.176;2022-08-21T03:19:40;2.80;;;2.67;;
16401;SDS011;8310;44.626;11.176;2022-08-21T03:22:08;3.00;;;2.80;;
16401;SDS011;8310;44.626;11.176;2022-08-21T03:24:37;3.55;;;3.35;;
16401;SDS011;8310;44.626;11.176;2022-08-21T03:27:05;3.55;;;2.97;;
16401;SDS011;8310;44.626;11.176;2022-08-21T03:29:32;2.83;;;2.60;;
16401;SDS011;8310;44.626;11.176;2022-08-21T03:31:59;3.03;;;2.83;;
16401;SDS011;8310;44.626;11.176;2022-08-21T03:34:26;2.83;;;2.65;;
16401;SDS011;8310;44.626;11.176;2022-08-21T03:36:55;2.85;;;2.50;;
16401;SDS011;8310;44.626;11.176;2022-08-21T03:39:22;2.50;;;2.40;;
16401;SDS011;8310;44.626;11.176;2022-08-21T03:41:50;3.10;;;2.90;;
16401;SDS011;8310;44.626;11.176;2022-08-21T03:44:19;2.95;;;2.65;;
16401;SDS011;8310;44.626;11.176;2022-08-21T03:46:46;2.90;;;2.70;;
16401;SDS011;8310;44.626;11.176;2022-08-21T03:49:14;3.13;;;2.88;;
16401;SDS011;8310;44.626;11.176;2022-08-21T03:51:41;3.00;;;2.80;;
16401;SDS011;8310;44.626;11.176;2022-08-21T03:54:10;3.85;;;2.80;;
16401;SDS011;8310;44.626;11.176;2022-08-21T03:56:38;2.90;;;2.70;;
16401;SDS011;8310;44.626;11.176;2022-08-21T03:59:06;2.90;;;2.70;;
16401;SDS011;8310;44.626;11.176;2022-08-21T04:01:34;2.92;;;2.72;;
16401;SDS011;8310;44.626;11.176;2022-08-21T04:04:01;2.78;;;2.60;;
16401;SDS011;8310;44.626;11.176;2022-08-21T04:06:31;2.70;;;2.60;;
16401;SDS011;8310;44.626;11.176;2022-08-21T04:08:59;3.80;;;2.95;;
16401;SDS011;8310;44.626;11.176;2022-08-21T04:11:28;2.70;;;2.50;;
16401;SDS011;8310;44.626;11.176;2022-08-21T04:13:55;3.22;;;2.90;;
16401;SDS011;8310;44.626;11.176;2022-08-21T04:16:23;3.10;;;2.90;;
16401;SDS011;8310;44.626;11.176;2022-08-21T04:18:50;2.78;;;2.58;;
16401;SDS011;8310;44.626;11.176;2022-08-21T04:21:18;2.95;;;2.75;;
16401;SDS011;8310;44.626;11.176;2022-08-21T04:23:45;2.60;;;2.40;;
16401;SDS011;8310;44.626;11.176;2022-08-21T04:26:13;2.63;;;2.50;;
16401;SDS011;8310;44.626;11.176;2022-08-21T04:28:41;2.90;;;2.60;;
16401;SDS011;8310;44.626;11.176;2022-08-21T04:31:09;2.60;;;2.40;;
16401;SDS011;8310;44.626;11.176;2022-08-21T04:33:37;2.20;;;2.10;;
16401;SDS011;8310;44.626;11.176;2022-08-21T04:36:04;2.90;;;2.45;;
16401;SDS011;8310;44.626;11.176;2022-08-21T04:38:33;2.72;;;2.63;;
16401;SDS011;8310;44.626;11.176;2022-08-21T04:41:01;2.60;;;2.40;;
16401;SDS011;8310;44.626;11.176;2022-08-21T04:43:28;2.60;;;2.50;;
16401;SDS011;8310;44.626;11.176;2022-08-21T04:46:00;3.30;;;3.00;;
16401;SDS011;8310;44.626;11.176;2022-08-21T04:48:28;4.03;;;3.08;;
16401;SDS011;8310;44.626;11.176;2022-08-21T04:50:56;2.53;;;2.33;;
16401;SDS011;8310;44.626;11.176;2022-08-21T04:53:30;2.38;;;2.28;;
16401;SDS011;8310;44.626;11.176;2022-08-21T04:56:04;2.22;;;2.10;;
16401;SDS011;8310;44.626;11.176;2022-08-21T04:58:35;2.60;;;2.40;;
16401;SDS011;8310;44.626;11.176;2022-08-21T05:01:07;2.13;;;2.03;;
16401;SDS011;8310;44.626;11.176;2022-08-21T05:03:41;2.95;;;2.40;;
16401;SDS011;8310;44.626;11.176;2022-08-21T05:06:10;2.63;;;2.42;;
16401;SDS011;8310;44.626;11.176;2022-08-21T05:08:39;2.50;;;2.40;;
16401;SDS011;8310;44.626;11.176;2022-08-21T05:11:11;3.03;;;2.83;;
16401;SDS011;8310;44.626;11.176;2022-08-21T05:13:38;2.95;;;2.80;;
16401;SDS011;8310;44.626;11.176;2022-08-21T05:16:08;2.65;;;2.55;;
16401;SDS011;8310;44.626;11.176;2022-08-21T05:18:35;2.92;;;2.72;;
16401;SDS011;8310;44.626;11.176;2022-08-21T05:21:03;2.47;;;2.38;;
16401;SDS011;8310;44.626;11.176;2022-08-21T05:23:31;2.72;;;2.55;;
16401;SDS011;8310;44.626;11.176;2022-08-21T05:25:59;3.53;;;2.78;;
16401;SDS011;8310;44.626;11.176;2022-08-21T05:28:26;2.55;;;2.42;;
16401;SDS011;8310;44.626;11.176;2022-08-21T05:30:53;2.42;;;2.33;;
16401;SDS011;8310;44.626;11.176;2022-08-21T05:33:33;3.08;;;2.78;;
16401;SDS011;8310;44.626;11.176;2022-08-21T05:36:00;2.47;;;2.28;;
16401;SDS011;8310;44.626;11.176;2022-08-21T05:38:27;2.80;;;2.60;;
16401;SDS011;8310;44.626;11.176;2022-08-21T05:40:55;2.97;;;2.78;;
16401;SDS011;8310;44.626;11.176;2022-08-21T05:43:22;2.90;;;2.70;;
16401;SDS011;8310;44.626;11.176;2022-08-21T05:46:08;2.40;;;2.25;;
16401;SDS011;8310;44.626;11.176;2022-08-21T05:48:36;2.60;;;2.40;;
16401;SDS011;8310;44.626;11.176;2022-08-21T05:51:05;2.42;;;2.28;;
16401;SDS011;8310;44.626;11.176;2022-08-21T05:53:37;2.22;;;2.05;;
16401;SDS011;8310;44.626;11.176;2022-08-21T05:56:07;2.47;;;2.10;;
16401;SDS011;8310;44.626;11.176;2022-08-21T05:58:35;2.20;;;2.10;;
16401;SDS011;8310;44.626;11.176;2022-08-21T06:01:02;2.28;;;2.08;;
16401;SDS011;8310;44.626;11.176;2022-08-21T06:03:33;2.13;;;2.00;;
16401;SDS011;8310;44.626;11.176;2022-08-21T06:06:03;2.65;;;2.45;;
16401;SDS011;8310;44.626;11.176;2022-08-21T06:08:32;3.30;;;2.30;;
16401;SDS011;8310;44.626;11.176;2022-08-21T06:11:01;2.92;;;2.65;;
16401;SDS011;8310;44.626;11.176;2022-08-21T06:13:30;2.40;;;2.20;;
16401;SDS011;8310;44.626;11.176;2022-08-21T06:16:01;2.50;;;2.40;;
16401;SDS011;8310;44.626;11.176;2022-08-21T06:18:36;2.33;;;2.22;;
16401;SDS011;8310;44.626;11.176;2022-08-21T06:21:04;2.55;;;2.35;;
16401;SDS011;8310;44.626;11.176;2022-08-21T06:23:33;3.55;;;2.47;;
16401;SDS011;8310;44.626;11.176;2022-08-21T06:26:01;3.30;;;2.65;;
16401;SDS011;8310;44.626;11.176;2022-08-21T06:28:29;2.50;;;2.30;;
16401;SDS011;8310;44.626;11.176;2022-08-21T06:30:57;2.55;;;2.25;;
16401;SDS011;8310;44.626;11.176;2022-08-21T06:33:24;2.80;;;2.60;;
16401;SDS011;8310;44.626;11.176;2022-08-21T06:35:56;2.75;;;2.55;;
16401;SDS011;8310;44.626;11.176;2022-08-21T06:38:25;2.60;;;2.40;;
16401;SDS011;8310;44.626;11.176;2022-08-21T06:40:52;3.22;;;2.90;;
16401;SDS011;8310;44.626;11.176;2022-08-21T06:43:19;2.70;;;2.60;;
16401;SDS011;8310;44.626;11.176;2022-08-21T06:45:46;3.50;;;3.22;;
16401;SDS011;8310;44.626;11.176;2022-08-21T06:48:14;3.30;;;2.95;;
16401;SDS011;8310;44.626;11.176;2022-08-21T06:50:42;3.42;;;3.20;;
16401;SDS011;8310;44.626;11.176;2022-08-21T06:53:11;3.10;;;2.83;;
16401;SDS011;8310;44.626;11.176;2022-08-21T06:55:40;2.80;;;2.60;;
16401;SDS011;8310;44.626;11.176;2022-08-21T06:58:09;2.50;;;2.40;;
16401;SDS011;8310;44.626;11.176;2022-08-21T07:00:42;3.65;;;3.35;;
16401;SDS011;8310;44.626;11.176;2022-08-21T07:03:22;3.60;;;3.33;;
16401;SDS011;8310;44.626;11.176;2022-08-21T07:05:50;2.70;;;2.60;;
16401;SDS011;8310;44.626;11.176;2022-08-21T07:08:20;2.80;;;2.60;;
16401;SDS011;8310;44.626;11.176;2022-08-21T07:10:48;3.00;;;2.80;;
16401;SDS011;8310;44.626;11.176;2022-08-21T07:13:16;3.10;;;2.72;;
16401;SDS011;8310;44.626;11.176;2022-08-21T07:15:43;3.20;;;2.90;;
16401;SDS011;8310;44.626;11.176;2022-08-21T07:18:11;3.17;;;2.97;;
16401;SDS011;8310;44.626;11.176;2022-08-21T07:20:39;3.08;;;2.88;;
16401;SDS011;8310;44.626;11.176;2022-08-21T07:23:12;9.32;;;2.90;;
16401;SDS011;8310;44.626;11.176;2022-08-21T07:25:47;2.70;;;2.60;;
16401;SDS011;8310;44.626;11.176;2022-08-21T07:28:15;2.70;;;2.60;;
16401;SDS011;8310;44.626;11.176;2022-08-21T07:30:43;3.03;;;2.80;;
16401;SDS011;8310;44.626;11.176;2022-08-21T07:33:11;4.35;;;3.28;;
16401;SDS011;8310;44.626;11.176;2022-08-21T07:35:39;3.30;;;3.00;;
16401;SDS011;8310;44.626;11.176;2022-08-21T07:38:07;2.88;;;2.65;;
16401;SDS011;8310;44.626;11.176;2022-08-21T07:40:34;3.22;;;2.58;;
16401;SDS011;8310;44.626;11.176;2022-08-21T07:43:04;4.40;;;2.90;;
16401;SDS011;8310;44.626;11.176;2022-08-21T07:45:32;3.00;;;2.80;;
16401;SDS011;8310;44.626;11.176;2022-08-21T07:48:00;3.03;;;2.83;;
16401;SDS011;8310;44.626;11.176;2022-08-21T07:50:27;2.95;;;2.75;;
16401;SDS011;8310;44.626;11.176;2022-08-21T07:52:54;3.30;;;3.05;;
16401;SDS011;8310;44.626;11.176;2022-08-21T07:55:22;4.72;;;3.05;;
16401;SDS011;8310;44.626;11.176;2022-08-21T07:57:50;3.58;;;2.65;;
16401;SDS011;8310;44.626;11.176;2022-08-21T08:00:20;3.22;;;3.03;;
16401;SDS011;8310;44.626;11.176;2022-08-21T08:02:49;3.75;;;2.63;;
16401;SDS011;8310;44.626;11.176;2022-08-21T08:05:25;2.90;;;2.70;;
16401;SDS011;8310;44.626;11.176;2022-08-21T08:07:55;3.53;;;2.80;;
16401;SDS011;8310;44.626;11.176;2022-08-21T08:10:23;3.20;;;2.65;;
16401;SDS011;8310;44.626;11.176;2022-08-21T08:12:54;2.72;;;2.55;;
16401;SDS011;8310;44.626;11.176;2022-08-21T08:15:28;2.90;;;2.70;;
16401;SDS011;8310;44.626;11.176;2022-08-21T08:17:58;2.67;;;2.50;;
16401;SDS011;8310;44.626;11.176;2022-08-21T08:20:25;3.00;;;2.80;;
16401;SDS011;8310;44.626;11.176;2022-08-21T08:22:54;3.70;;;2.83;;
16401;SDS011;8310;44.626;11.176;2022-08-21T08:25:27;4.70;;;3.15;;
16401;SDS011;8310;44.626;11.176;2022-08-21T08:27:54;2.63;;;2.42;;
16401;SDS011;8310;44.626;11.176;2022-08-21T08:30:22;2.60;;;2.40;;
16401;SDS011;8310;44.626;11.176;2022-08-21T08:32:51;2.60;;;2.40;;
16401;SDS011;8310;44.626;11.176;2022-08-21T08:35:19;3.17;;;2.95;;
16401;SDS011;8310;44.626;11.176;2022-08-21T08:37:46;2.45;;;2.30;;
16401;SDS011;8310;44.626;11.176;2022-08-21T08:40:14;2.40;;;2.30;;
16401;SDS011;8310;44.626;11.176;2022-08-21T08:42:49;2.50;;;2.30;;
16401;SDS011;8310;44.626;11.176;2022-08-21T08:45:18;3.30;;;2.40;;
16401;SDS011;8310;44.626;11.176;2022-08-21T08:47:49;2.22;;;2.00;;
16401;SDS011;8310;44.626;11.176;2022-08-21T08:50:24;2.65;;;2.33;;
16401;SDS011;8310;44.626;11.176;2022-08-21T08:52:59;3.00;;;2.40;;
16401;SDS011;8310;44.626;11.176;2022-08-21T08:55:32;2.28;;;2.13;;
16401;SDS011;8310;44.626;11.176;2022-08-21T09:01:04;3.08;;;2.65;;
16401;SDS011;8310;44.626;11.176;2022-08-21T09:03:38;2.55;;;2.40;;
16401;SDS011;8310;44.626;11.176;2022-08-21T09:06:07;3.08;;;2.60;;
16401;SDS011;8310;44.626;11.176;2022-08-21T09:08:46;2.70;;;2.50;;
16401;SDS011;8310;44.626;11.176;2022-08-21T09:11:28;2.60;;;2.50;;
16401;SDS011;8310;44.626;11.176;2022-08-21T09:14:04;3.20;;;3.00;;
16401;SDS011;8310;44.626;11.176;2022-08-21T09:16:40;2.65;;;2.30;;
16401;SDS011;8310;44.626;11.176;2022-08-21T09:19:27;2.60;;;2.40;;
16401;SDS011;8310;44.626;11.176;2022-08-21T09:22:08;2.75;;;2.58;;
16401;SDS011;8310;44.626;11.176;2022-08-21T09:24:47;2.47;;;2.28;;
16401;SDS011;8310;44.626;11.176;2022-08-21T09:27:23;3.10;;;2.72;;
16401;SDS011;8310;44.626;11.176;2022-08-21T09:29:52;2.60;;;2.40;;
16401;SDS011;8310;44.626;11.176;2022-08-21T09:32:23;2.50;;;2.30;;
16401;SDS011;8310;44.626;11.176;2022-08-21T09:34:58;2.67;;;2.47;;
16401;SDS011;8310;44.626;11.176;2022-08-21T09:37:27;2.70;;;2.50;;
16401;SDS011;8310;44.626;11.176;2022-08-21T09:39:57;3.28;;;2.80;;
16401;SDS011;8310;44.626;11.176;2022-08-21T09:42:29;2.83;;;2.72;;
16401;SDS011;8310;44.626;11.176;2022-08-21T09:45:07;3.95;;;2.42;;
16401;SDS011;8310;44.626;11.176;2022-08-21T09:47:38;2.95;;;2.75;;
16401;SDS011;8310;44.626;11.176;2022-08-21T09:50:14;2.38;;;2.13;;
16401;SDS011;8310;44.626;11.176;2022-08-21T09:52:45;3.33;;;2.42;;
16401;SDS011;8310;44.626;11.176;2022-08-21T09:55:16;2.70;;;2.60;;
16401;SDS011;8310;44.626;11.176;2022-08-21T09:58:05;3.45;;;3.15;;
16401;SDS011;8310;44.626;11.176;2022-08-21T10:00:34;2.40;;;2.20;;
16401;SDS011;8310;44.626;11.176;2022-08-21T10:03:09;2.35;;;2.22;;
16401;SDS011;8310;44.626;11.176;2022-08-21T10:05:49;2.55;;;2.45;;
16401;SDS011;8310;44.626;11.176;2022-08-21T10:08:19;2.95;;;2.67;;
16401;SDS011;8310;44.626;11.176;2022-08-21T10:10:50;3.08;;;2.83;;
16401;SDS011;8310;44.626;11.176;2022-08-21T10:13:21;2.88;;;2.78;;
16401;SDS011;8310;44.626;11.176;2022-08-21T10:15:57;3.35;;;3.05;;
16401;SDS011;8310;44.626;11.176;2022-08-21T10:18:36;2.80;;;2.60;;
16401;SDS011;8310;44.626;11.176;2022-08-21T10:21:10;3.42;;;3.13;;
16401;SDS011;8310;44.626;11.176;2022-08-21T10:23:46;3.00;;;2.72;;
16401;SDS011;8310;44.626;11.176;2022-08-21T10:26:26;3.05;;;2.63;;
16401;SDS011;8310;44.626;11.176;2022-08-21T10:29:10;2.55;;;2.35;;
16401;SDS011;8310;44.626;11.176;2022-08-21T10:31:46;2.88;;;2.47;;
16401;SDS011;8310;44.626;11.176;2022-08-21T10:34:26;3.55;;;2.00;;
16401;SDS011;8310;44.626;11.176;2022-08-21T10:37:09;2.10;;;1.90;;
16401;SDS011;8310;44.626;11.176;2022-08-21T10:39:45;3.38;;;2.70;;
16401;SDS011;8310;44.626;11.176;2022-08-21T10:42:25;2.15;;;2.05;;
16401;SDS011;8310;44.626;11.176;2022-08-21T10:45:02;2.00;;;1.90;;
16401;SDS011;8310;44.626;11.176;2022-08-21T10:47:39;2.55;;;2.20;;
16401;SDS011;8310;44.626;11.176;2022-08-21T10:50:12;2.10;;;1.80;;
16401;SDS011;8310;44.626;11.176;2022-08-21T10:53:04;2.35;;;2.10;;
16401;SDS011;8310;44.626;11.176;2022-08-21T10:55:43;2.45;;;2.25;;
16401;SDS011;8310;44.626;11.176;2022-08-21T10:58:21;2.08;;;1.98;;
16401;SDS011;8310;44.626;11.176;2022-08-21T11:00:55;2.10;;;2.00;;
16401;SDS011;8310;44.626;11.176;2022-08-21T11:03:28;2.55;;;2.30;;
16401;SDS011;8310;44.626;11.176;2022-08-21T11:06:02;1.90;;;1.80;;
16401;SDS011;8310;44.626;11.176;2022-08-21T11:08:39;2.30;;;2.10;;
16401;SDS011;8310;44.626;11.176;2022-08-21T11:11:10;2.30;;;2.10;;
16401;SDS011;8310;44.626;11.176;2022-08-21T11:13:42;2.00;;;1.90;;
16401;SDS011;8310;44.626;11.176;2022-08-21T11:16:16;1.92;;;1.83;;
16401;SDS011;8310;44.626;11.176;2022-08-21T11:18:50;2.08;;;1.83;;
16401;SDS011;8310;44.626;11.176;2022-08-21T11:21:28;2.08;;;1.98;;
16401;SDS011;8310;44.626;11.176;2022-08-21T11:24:05;2.38;;;2.17;;
16401;SDS011;8310;44.626;11.176;2022-08-21T11:26:52;1.83;;;1.80;;
16401;SDS011;8310;44.626;11.176;2022-08-21T11:29:29;1.83;;;1.77;;
16401;SDS011;8310;44.626;11.176;2022-08-21T11:32:02;2.03;;;1.95;;
16401;SDS011;8310;44.626;11.176;2022-08-21T11:34:47;1.85;;;1.75;;
16401;SDS011;8310;44.626;11.176;2022-08-21T11:37:25;1.90;;;1.80;;
16401;SDS011;8310;44.626;11.176;2022-08-21T11:40:16;1.70;;;1.70;;
16401;SDS011;8310;44.626;11.176;2022-08-21T11:42:54;1.70;;;1.60;;
16401;SDS011;8310;44.626;11.176;2022-08-21T11:45:30;2.10;;;1.60;;
16401;SDS011;8310;44.626;11.176;2022-08-21T11:48:05;1.95;;;1.80;;
16401;SDS011;8310;44.626;11.176;2022-08-21T11:50:39;1.60;;;1.50;;
16401;SDS011;8310;44.626;11.176;2022-08-21T11:53:11;1.70;;;1.60;;
16401;SDS011;8310;44.626;11.176;2022-08-21T11:55:43;1.40;;;1.35;;
16401;SDS011;8310;44.626;11.176;2022-08-21T11:58:17;1.38;;;1.30;;
16401;SDS011;8310;44.626;11.176;2022-08-21T12:00:49;1.00;;;1.00;;
16401;SDS011;8310;44.626;11.176;2022-08-21T12:03:22;1.30;;;1.20;;
16401;SDS011;8310;44.626;11.176;2022-08-21T12:05:52;1.13;;;1.13;;
16401;SDS011;8310;44.626;11.176;2022-08-21T12:08:28;1.67;;;1.27;;
16401;SDS011;8310;44.626;11.176;2022-08-21T12:11:03;1.30;;;1.30;;
16401;SDS011;8310;44.626;11.176;2022-08-21T12:13:34;1.45;;;1.30;;
16401;SDS011;8310;44.626;11.176;2022-08-21T12:16:07;1.40;;;1.30;;
16401;SDS011;8310;44.626;11.176;2022-08-21T12:18:37;1.67;;;1.20;;
16401;SDS011;8310;44.626;11.176;2022-08-21T12:21:16;2.88;;;1.20;;
16401;SDS011;8310;44.626;11.176;2022-08-21T12:23:49;1.77;;;1.58;;
16401;SDS011;8310;44.626;11.176;2022-08-21T12:26:30;1.40;;;1.30;;
16401;SDS011;8310;44.626;11.176;2022-08-21T12:31:51;1.30;;;1.30;;
16401;SDS011;8310;44.626;11.176;2022-08-21T12:34:22;1.50;;;1.40;;
16401;SDS011;8310;44.626;11.176;2022-08-21T12:37:03;1.30;;;1.20;;
16401;SDS011;8310;44.626;11.176;2022-08-21T12:39:34;1.40;;;1.40;;
16401;SDS011;8310;44.626;11.176;2022-08-21T12:44:53;1.38;;;1.27;;
16401;SDS011;8310;44.626;11.176;2022-08-21T12:47:25;1.25;;;1.25;;
16401;SDS011;8310;44.626;11.176;2022-08-21T12:49:59;1.60;;;1.50;;
16401;SDS011;8310;44.626;11.176;2022-08-21T12:52:33;1.35;;;1.35;;
16401;SDS011;8310;44.626;11.176;2022-08-21T12:55:04;1.50;;;1.50;;
16401;SDS011;8310;44.626;11.176;2022-08-21T12:57:39;1.35;;;1.35;;
16401;SDS011;8310;44.626;11.176;2022-08-21T13:00:08;1.35;;;1.35;;
16401;SDS011;8310;44.626;11.176;2022-08-21T13:02:42;1.60;;;1.50;;
16401;SDS011;8310;44.626;11.176;2022-08-21T13:05:19;1.50;;;1.50;;
16401;SDS011;8310;44.626;11.176;2022-08-21T13:07:53;1.50;;;1.40;;
16401;SDS011;8310;44.626;11.176;2022-08-21T13:10:22;1.60;;;1.50;;
16401;SDS011;8310;44.626;11.176;2022-08-21T13:12:54;1.58;;;1.48;;
16401;SDS011;8310;44.626;11.176;2022-08-21T13:15:25;1.58;;;1.58;;
16401;SDS011;8310;44.626;11.176;2022-08-21T13:17:54;1.50;;;1.40;;
16401;SDS011;8310;44.626;11.176;2022-08-21T13:20:28;1.55;;;1.45;;
16401;SDS011;8310;44.626;11.176;2022-08-21T13:22:57;1.70;;;1.63;;
16401;SDS011;8310;44.626;11.176;2022-08-21T13:25:27;1.50;;;1.42;;
16401;SDS011;8310;44.626;11.176;2022-08-21T13:27:59;1.50;;;1.35;;
16401;SDS011;8310;44.626;11.176;2022-08-21T13:30:31;1.52;;;1.48;;
16401;SDS011;8310;44.626;11.176;2022-08-21T13:32:59;1.40;;;1.40;;
16401;SDS011;8310;44.626;11.176;2022-08-21T13:35:30;1.42;;;1.42;;
16401;SDS011;8310;44.626;11.176;2022-08-21T13:38:03;1.70;;;1.67;;
16401;SDS011;8310;44.626;11.176;2022-08-21T13:40:32;1.38;;;1.30;;
16401;SDS011;8310;44.626;11.176;2022-08-21T13:43:14;1.60;;;1.50;;
16401;SDS011;8310;44.626;11.176;2022-08-21T13:45:44;3.13;;;1.90;;
16401;SDS011;8310;44.626;11.176;2022-08-21T13:48:19;1.40;;;1.40;;
16401;SDS011;8310;44.626;11.176;2022-08-21T13:50:48;1.10;;;1.10;;
16401;SDS011;8310;44.626;11.176;2022-08-21T13:53:20;1.30;;;1.30;;
16401;SDS011;8310;44.626;11.176;2022-08-21T13:55:50;1.40;;;1.33;;
16401;SDS011;8310;44.626;11.176;2022-08-21T13:58:26;1.85;;;1.70;;
16401;SDS011;8310;44.626;11.176;2022-08-21T14:00:56;1.48;;;1.30;;
16401;SDS011;8310;44.626;11.176;2022-08-21T14:03:27;1.42;;;1.30;;
16401;SDS011;8310;44.626;11.176;2022-08-21T14:05:58;1.63;;;1.27;;
16401;SDS011;8310;44.626;11.176;2022-08-21T14:08:28;1.30;;;1.30;;
16401;SDS011;8310;44.626;11.176;2022-08-21T14:10:59;1.30;;;1.30;;
16401;SDS011;8310;44.626;11.176;2022-08-21T14:13:33;1.50;;;1.40;;
16401;SDS011;8310;44.626;11.176;2022-08-21T14:16:10;1.42;;;1.40;;
16401;SDS011;8310;44.626;11.176;2022-08-21T14:18:49;1.30;;;1.30;;
16401;SDS011;8310;44.626;11.176;2022-08-21T14:21:27;1.50;;;1.50;;
16401;SDS011;8310;44.626;11.176;2022-08-21T14:24:04;1.30;;;1.30;;
16401;SDS011;8310;44.626;11.176;2022-08-21T14:26:37;1.40;;;1.40;;
16401;SDS011;8310;44.626;11.176;2022-08-21T14:29:15;1.40;;;1.40;;
16401;SDS011;8310;44.626;11.176;2022-08-21T14:31:48;1.50;;;1.40;;
16401;SDS011;8310;44.626;11.176;2022-08-21T14:34:17;1.30;;;1.30;;
16401;SDS011;8310;44.626;11.176;2022-08-21T14:36:45;1.30;;;1.20;;
16401;SDS011;8310;44.626;11.176;2022-08-21T14:39:14;1.33;;;1.33;;
16401;SDS011;8310;44.626;11.176;2022-08-21T14:41:41;1.52;;;1.30;;
16401;SDS011;8310;44.626;11.176;2022-08-21T14:44:11;1.50;;;1.40;;
16401;SDS011;8310;44.626;11.176;2022-08-21T14:46:41;1.20;;;1.20;;
16401;SDS011;8310;44.626;11.176;2022-08-21T14:49:08;1.40;;;1.30;;
16401;SDS011;8310;44.626;11.176;2022-08-21T14:51:36;1.52;;;1.50;;
16401;SDS011;8310;44.626;11.176;2022-08-21T14:54:04;1.20;;;1.20;;
16401;SDS011;8310;44.626;11.176;2022-08-21T14:56:32;1.50;;;1.50;;
16401;SDS011;8310;44.626;11.176;2022-08-21T14:59:02;1.58;;;1.48;;
16401;SDS011;8310;44.626;11.176;2022-08-21T15:01:32;1.17;;;1.17;;
16401;SDS011;8310;44.626;11.176;2022-08-21T15:04:05;1.35;;;1.25;;
16401;SDS011;8310;44.626;11.176;2022-08-21T15:06:32;1.30;;;1.30;;
16401;SDS011;8310;44.626;11.176;2022-08-21T15:09:03;1.30;;;1.30;;
16401;SDS011;8310;44.626;11.176;2022-08-21T15:11:36;1.63;;;1.60;;
16401;SDS011;8310;44.626;11.176;2022-08-21T15:14:05;1.52;;;1.50;;
16401;SDS011;8310;44.626;11.176;2022-08-21T15:16:37;1.67;;;1.60;;
16401;SDS011;8310;44.626;11.176;2022-08-21T15:19:06;1.63;;;1.52;;